createdAt,value
2022-09-01T00:00:05.629Z,1.30
2022-09-01T00:01:06.772Z,1.40
2022-09-01T00:02:05.620Z,1.30
2022-09-01T00:03:05.683Z,1.40
2022-09-01T00:04:05.724Z,1.40
2022-09-01T00:05:05.732Z,1.30
2022-09-01T00:06:05.522Z,1.50
2022-09-01T00:07:05.683Z,1.30
2022-09-01T00:08:05.613Z,1.30
2022-09-01T00:09:05.593Z,1.60
2022-09-01T00:10:05.473Z,1.30
2022-09-01T00:11:06.645Z,1.50
2022-09-01T00:12:05.445Z,1.30
2022-09-01T00:13:06.584Z,1.50
2022-09-01T00:14:05.522Z,1.30
2022-09-01T00:15:06.404Z,1.30
2022-09-01T00:16:05.653Z,1.50
2022-09-01T00:17:05.475Z,1.40
2022-09-01T00:18:05.573Z,1.30
2022-09-01T00:19:05.424Z,1.30
2022-09-01T00:20:05.482Z,1.50
2022-09-01T00:21:05.333Z,1.20
2022-09-01T00:22:27.472Z,1.40
2022-09-01T00:23:05.294Z,1.40
2022-09-01T00:24:06.424Z,1.20
2022-09-01T00:25:05.354Z,1.30
2022-09-01T00:26:06.463Z,1.40
2022-09-01T00:27:05.244Z,1.30
2022-09-01T00:28:05.306Z,1.10
2022-09-01T00:29:05.225Z,1.20
2022-09-01T00:30:05.314Z,1.40
2022-09-01T00:31:05.297Z,1.30
2022-09-01T00:32:05.406Z,1.30
2022-09-01T00:33:05.253Z,1.40
2022-09-01T00:34:05.205Z,1.50
2022-09-01T00:35:05.135Z,1.60
2022-09-01T00:36:05.316Z,1.30
2022-09-01T00:37:05.142Z,1.40
2022-09-01T00:38:07.249Z,1.30
2022-09-01T00:39:05.172Z,1.60
2022-09-01T00:40:05.200Z,1.40
2022-09-01T00:41:05.055Z,1.30
2022-09-01T00:42:05.246Z,1.20
2022-09-01T00:43:05.055Z,1.40
2022-09-01T00:44:06.192Z,1.30
2022-09-01T00:45:05.026Z,1.40
2022-09-01T00:46:07.208Z,1.50
2022-09-01T00:47:04.978Z,1.40
2022-09-01T00:48:05.024Z,1.30
2022-09-01T00:49:04.977Z,1.20
2022-09-01T00:50:05.058Z,1.30
2022-09-01T00:51:04.926Z,1.40
2022-09-01T00:52:05.097Z,1.60
2022-09-01T00:53:04.945Z,1.50
2022-09-01T00:54:05.031Z,1.40
2022-09-01T00:55:04.966Z,1.40
2022-09-01T00:56:05.987Z,1.40
2022-09-01T00:57:04.851Z,1.40
2022-09-01T00:58:04.895Z,1.20
2022-09-01T00:59:04.826Z,1.30
2022-09-01T01:00:05.032Z,1.30
2022-09-01T01:01:04.822Z,1.40
2022-09-01T01:02:04.965Z,1.20
2022-09-01T01:03:04.767Z,1.30
2022-09-01T01:04:04.850Z,1.50
2022-09-01T01:05:04.749Z,1.50
2022-09-01T01:06:04.862Z,1.40
2022-09-01T01:07:04.738Z,1.40
2022-09-01T01:08:04.777Z,1.30
2022-09-01T01:09:04.688Z,1.30
2022-09-01T01:10:04.826Z,1.40
2022-09-01T01:11:04.659Z,1.30
2022-09-01T01:12:04.870Z,1.50
2022-09-01T01:13:04.668Z,1.50
2022-09-01T01:14:04.799Z,1.20
2022-09-01T01:15:04.626Z,1.20
2022-09-01T01:16:25.712Z,1.50
2022-09-01T01:17:04.646Z,1.40
2022-09-01T01:18:04.732Z,1.40
2022-09-01T01:19:04.568Z,1.40
2022-09-01T01:20:04.699Z,1.20
2022-09-01T01:21:04.540Z,1.30
2022-09-01T01:22:04.620Z,1.60
2022-09-01T01:23:04.518Z,1.20
2022-09-01T01:24:04.609Z,1.70
2022-09-01T01:25:04.469Z,1.30
2022-09-01T01:27:13.983Z,1.20
2022-09-01T01:28:13.765Z,1.30
2022-09-01T01:29:13.903Z,1.30
2022-09-01T01:30:13.811Z,1.30
2022-09-01T01:31:14.959Z,1.30
2022-09-01T01:32:13.773Z,1.40
2022-09-01T01:33:13.885Z,1.40
2022-09-01T01:34:13.687Z,1.40
2022-09-01T01:35:13.919Z,1.20
2022-09-01T01:36:13.679Z,1.30
2022-09-01T01:37:15.747Z,1.20
2022-09-01T01:38:13.658Z,1.40
2022-09-01T01:39:13.685Z,1.60
2022-09-01T01:40:13.664Z,1.30
2022-09-01T01:41:13.760Z,1.20
2022-09-01T01:42:13.597Z,1.40
2022-09-01T01:43:13.587Z,1.30
2022-09-01T01:44:13.644Z,1.30
2022-09-01T01:45:13.704Z,1.30
2022-09-01T01:46:13.628Z,1.30
2022-09-01T01:47:14.558Z,1.40
2022-09-01T01:48:13.521Z,1.30
2022-09-01T01:49:13.527Z,1.30
2022-09-01T01:50:13.485Z,1.20
2022-09-01T01:51:13.598Z,1.20
2022-09-01T01:52:13.459Z,1.30
2022-09-01T01:53:13.635Z,1.30
2022-09-01T01:54:13.436Z,1.40
2022-09-01T01:55:35.588Z,1.30
2022-09-01T01:56:13.430Z,1.30
2022-09-01T01:57:13.500Z,1.30
2022-09-01T01:58:13.426Z,1.20
2022-09-01T01:59:14.466Z,1.60
2022-09-01T02:00:13.337Z,1.30
2022-09-01T02:01:13.489Z,1.20
2022-09-01T02:02:13.423Z,1.20
2022-09-01T02:03:13.331Z,1.10
2022-09-01T02:04:13.308Z,1.10
2022-09-01T02:05:13.448Z,1.40
2022-09-01T02:06:13.250Z,1.40
2022-09-01T02:07:13.376Z,1.30
2022-09-01T02:08:13.230Z,1.30
2022-09-01T02:09:13.330Z,1.20
2022-09-01T02:10:13.248Z,1.30
2022-09-01T02:11:34.378Z,1.20
2022-09-01T02:12:14.976Z,1.10
2022-09-01T02:13:13.259Z,1.10
2022-09-01T02:14:13.150Z,1.20
2022-09-01T02:15:13.298Z,1.30
2022-09-01T02:16:13.530Z,1.20
2022-09-01T02:17:35.175Z,1.30
2022-09-01T02:18:13.098Z,1.20
2022-09-01T02:19:13.086Z,1.20
2022-09-01T02:20:13.151Z,1.40
2022-09-01T02:21:18.143Z,1.20
2022-09-01T02:22:14.044Z,1.30
2022-09-01T02:23:13.061Z,1.10
2022-09-01T02:24:13.009Z,1.20
2022-09-01T02:25:34.170Z,1.30
2022-09-01T02:26:17.503Z,1.30
2022-09-01T02:27:13.117Z,1.20
2022-09-01T02:28:13.147Z,1.50
2022-09-01T02:29:12.942Z,1.60
2022-09-01T02:30:14.052Z,1.40
2022-09-01T02:31:13.031Z,1.20
2022-09-01T02:32:13.229Z,1.30
2022-09-01T02:33:13.200Z,1.30
2022-09-01T02:34:14.158Z,1.20
2022-09-01T02:35:12.863Z,1.10
2022-09-01T02:36:15.062Z,1.20
2022-09-01T02:37:12.832Z,1.20
2022-09-01T02:38:13.032Z,1.30
2022-09-01T02:39:12.848Z,1.10
2022-09-01T02:40:12.915Z,1.30
2022-09-01T02:41:12.844Z,1.20
2022-09-01T02:42:12.899Z,1.30
2022-09-01T02:43:12.759Z,1.20
2022-09-01T02:44:12.965Z,1.20
2022-09-01T02:45:12.734Z,1.30
2022-09-01T02:46:12.991Z,1.10
2022-09-01T02:47:12.741Z,1.30
2022-09-01T02:48:12.809Z,1.10
2022-09-01T02:49:12.704Z,1.40
2022-09-01T02:50:12.783Z,1.20
2022-09-01T02:51:12.652Z,1.60
2022-09-01T02:52:12.774Z,1.10
2022-09-01T02:53:12.703Z,1.10
2022-09-01T02:54:12.755Z,1.20
2022-09-01T02:55:12.636Z,1.30
2022-09-01T02:56:12.804Z,1.30
2022-09-01T02:57:12.563Z,1.30
2022-09-01T02:58:12.633Z,1.10
2022-09-01T02:59:12.574Z,1.20
2022-09-01T03:00:12.731Z,1.30
2022-09-01T03:01:12.683Z,1.80
2022-09-01T03:02:12.604Z,1.40
2022-09-01T03:03:12.493Z,1.30
2022-09-01T03:04:12.563Z,1.60
2022-09-01T03:05:12.504Z,1.40
2022-09-01T03:06:13.604Z,1.30
2022-09-01T03:07:12.544Z,1.00
2022-09-01T03:08:12.560Z,1.20
2022-09-01T03:09:12.414Z,1.30
2022-09-01T03:10:12.505Z,1.20
2022-09-01T03:11:13.385Z,1.10
2022-09-01T03:12:12.516Z,1.10
2022-09-01T03:13:12.405Z,1.20
2022-09-01T03:14:12.411Z,1.40
2022-09-01T03:15:12.401Z,1.20
2022-09-01T03:16:12.470Z,1.20
2022-09-01T03:17:12.295Z,1.10
2022-09-01T03:18:12.415Z,1.10
2022-09-01T03:19:12.283Z,1.20
2022-09-01T03:20:12.354Z,1.30
2022-09-01T03:21:12.288Z,1.10
2022-09-01T03:22:12.355Z,1.20
2022-09-01T03:23:12.215Z,1.10
2022-09-01T03:24:13.365Z,1.30
2022-09-01T03:25:12.216Z,1.20
2022-09-01T03:26:12.355Z,1.30
2022-09-01T03:27:12.189Z,1.30
2022-09-01T03:28:12.206Z,1.10
2022-09-01T03:29:12.137Z,1.10
2022-09-01T03:30:12.246Z,1.30
2022-09-01T03:31:12.114Z,1.10
2022-09-01T03:32:34.235Z,1.10
2022-09-01T03:33:12.196Z,1.20
2022-09-01T03:34:12.170Z,1.10
2022-09-01T03:35:12.057Z,1.20
2022-09-01T03:36:15.352Z,1.10
2022-09-01T03:37:12.037Z,1.30
2022-09-01T03:38:12.172Z,1.30
2022-09-01T03:39:16.496Z,1.40
2022-09-01T03:40:12.030Z,1.40
2022-09-01T03:41:12.136Z,1.30
2022-09-01T03:42:11.978Z,1.00
2022-09-01T03:43:12.080Z,1.20
2022-09-01T03:44:11.997Z,1.40
2022-09-01T03:45:12.018Z,1.10
2022-09-01T03:46:11.975Z,1.10
2022-09-01T03:47:13.178Z,1.20
2022-09-01T03:48:11.947Z,1.00
2022-09-01T03:49:11.958Z,1.20
2022-09-01T03:50:11.858Z,1.10
2022-09-01T03:51:12.087Z,1.10
2022-09-01T03:52:11.898Z,1.30
2022-09-01T03:53:11.997Z,1.20
2022-09-01T03:54:11.808Z,1.20
2022-09-01T03:55:11.989Z,1.10
2022-09-01T03:56:11.778Z,1.10
2022-09-01T03:57:11.901Z,1.10
2022-09-01T03:58:11.831Z,1.00
2022-09-01T03:59:11.890Z,1.20
2022-09-01T04:00:11.757Z,1.10
2022-09-01T04:01:13.807Z,1.20
2022-09-01T04:02:11.744Z,1.10
2022-09-01T04:03:12.768Z,1.10
2022-09-01T04:04:11.672Z,1.20
2022-09-01T04:05:11.727Z,1.10
2022-09-01T04:06:11.716Z,1.10
2022-09-01T04:07:15.572Z,1.10
2022-09-01T04:08:12.667Z,1.20
2022-09-01T04:09:13.731Z,1.20
2022-09-01T04:10:11.602Z,1.10
2022-09-01T04:11:11.668Z,1.20
2022-09-01T04:12:11.619Z,1.20
2022-09-01T04:13:11.610Z,1.10
2022-09-01T04:14:11.567Z,1.10
2022-09-01T04:15:11.632Z,1.00
2022-09-01T04:16:11.675Z,1.20
2022-09-01T04:17:11.593Z,1.10
2022-09-01T04:18:11.492Z,1.20
2022-09-01T04:19:11.622Z,0.90
2022-09-01T04:20:11.485Z,1.00
2022-09-01T04:21:11.591Z,1.20
2022-09-01T04:22:11.522Z,1.30
2022-09-01T04:23:11.627Z,1.10
2022-09-01T04:24:11.400Z,1.10
2022-09-01T04:25:11.490Z,1.20
2022-09-01T04:26:11.380Z,1.20
2022-09-01T04:27:11.441Z,1.20
2022-09-01T04:28:11.413Z,1.30
2022-09-01T04:29:11.422Z,1.10
2022-09-01T04:30:11.354Z,1.10
2022-09-01T04:31:12.413Z,1.20
2022-09-01T04:32:11.301Z,1.10
2022-09-01T04:33:11.452Z,1.20
2022-09-01T04:34:11.301Z,1.20
2022-09-01T04:35:12.342Z,1.90
2022-09-01T04:36:11.313Z,1.10
2022-09-01T04:37:11.272Z,1.10
2022-09-01T04:38:11.221Z,1.00
2022-09-01T04:39:12.369Z,1.00
2022-09-01T04:40:11.299Z,1.70
2022-09-01T04:41:12.241Z,1.40
2022-09-01T04:42:11.161Z,1.40
2022-09-01T04:43:12.293Z,1.10
2022-09-01T04:44:11.201Z,1.10
2022-09-01T04:45:12.152Z,0.90
2022-09-01T04:46:11.181Z,1.20
2022-09-01T04:47:11.222Z,1.20
2022-09-01T04:48:11.089Z,1.10
2022-09-01T04:49:13.006Z,1.20
2022-09-01T04:50:11.092Z,1.20
2022-09-01T04:51:32.284Z,1.20
2022-09-01T04:52:11.063Z,1.00
2022-09-01T04:53:11.082Z,1.00
2022-09-01T04:54:11.004Z,1.10
2022-09-01T04:55:12.023Z,1.20
2022-09-01T04:56:10.993Z,1.20
2022-09-01T04:57:11.135Z,1.20
2022-09-01T04:58:10.973Z,1.10
2022-09-01T04:59:11.183Z,1.10
2022-09-01T05:00:10.951Z,1.00
2022-09-01T05:01:11.049Z,1.20
2022-09-01T05:02:10.972Z,1.00
2022-09-01T05:03:11.033Z,1.20
2022-09-01T05:04:10.875Z,1.10
2022-09-01T05:05:10.994Z,1.10
2022-09-01T05:06:10.854Z,1.00
2022-09-01T05:07:10.884Z,1.20
2022-09-01T05:08:10.883Z,1.40
2022-09-01T05:09:10.865Z,1.10
2022-09-01T05:10:10.792Z,1.10
2022-09-01T05:11:10.927Z,1.10
2022-09-01T05:12:10.768Z,1.30
2022-09-01T05:13:10.894Z,1.10
2022-09-01T05:14:10.765Z,1.50
2022-09-01T05:15:10.894Z,1.20
2022-09-01T05:16:10.818Z,1.20
2022-09-01T05:17:10.746Z,1.10
2022-09-01T05:18:10.758Z,1.10
2022-09-01T05:19:10.763Z,1.20
2022-09-01T05:20:10.666Z,1.10
2022-09-01T05:21:11.727Z,1.10
2022-09-01T05:22:10.634Z,1.20
2022-09-01T05:23:10.826Z,1.00
2022-09-01T05:24:10.676Z,1.10
2022-09-01T05:25:11.626Z,1.30
2022-09-01T05:26:10.603Z,1.10
2022-09-01T05:27:10.686Z,1.10
2022-09-01T05:28:10.546Z,1.10
2022-09-01T05:29:11.557Z,1.20
2022-09-01T05:30:10.558Z,1.10
2022-09-01T05:31:10.606Z,1.10
2022-09-01T05:32:10.507Z,1.00
2022-09-01T05:33:10.618Z,1.10
2022-09-01T05:34:10.730Z,1.10
2022-09-01T05:35:10.577Z,1.10
2022-09-01T05:36:11.216Z,1.10
2022-09-01T05:37:12.648Z,1.10
2022-09-01T05:38:10.439Z,1.10
2022-09-01T05:39:10.516Z,0.80
2022-09-01T05:40:12.431Z,1.10
2022-09-01T05:41:11.440Z,1.20
2022-09-01T05:42:10.358Z,1.10
2022-09-01T05:43:10.537Z,1.10
2022-09-01T05:44:10.335Z,1.00
2022-09-01T05:45:10.373Z,1.10
2022-09-01T05:46:10.377Z,1.00
2022-09-01T05:47:11.416Z,1.10
2022-09-01T05:48:11.309Z,1.10
2022-09-01T05:49:11.291Z,1.10
2022-09-01T05:50:14.325Z,1.00
2022-09-01T05:51:27.513Z,1.20
2022-09-01T05:52:11.228Z,1.10
2022-09-01T05:53:11.099Z,1.10
2022-09-01T05:54:10.292Z,1.00
2022-09-01T05:55:10.199Z,1.20
2022-09-01T05:56:10.348Z,1.10
2022-09-01T05:57:32.615Z,1.10
2022-09-01T05:58:11.191Z,1.10
2022-09-01T05:59:26.357Z,1.10
2022-09-01T06:00:11.339Z,0.80
2022-09-01T06:01:10.259Z,1.20
2022-09-01T06:02:10.211Z,0.90
2022-09-01T06:03:10.425Z,1.00
2022-09-01T06:04:10.069Z,1.00
2022-09-01T06:05:10.133Z,1.20
2022-09-01T06:06:10.041Z,1.20
2022-09-01T06:07:32.116Z,1.10
2022-09-01T06:08:10.023Z,1.00
2022-09-01T06:09:10.207Z,1.00
2022-09-01T06:10:10.041Z,1.00
2022-09-01T06:11:10.139Z,1.20
2022-09-01T06:12:09.960Z,1.20
2022-09-01T06:13:33.091Z,1.00
2022-09-01T06:14:09.938Z,1.10
2022-09-01T06:15:10.055Z,1.10
2022-09-01T06:16:09.977Z,1.00
2022-09-01T06:17:10.011Z,1.00
2022-09-01T06:18:09.965Z,1.00
2022-09-01T06:19:10.893Z,1.00
2022-09-01T06:20:09.852Z,1.10
2022-09-01T06:21:09.962Z,1.20
2022-09-01T06:22:09.859Z,1.20
2022-09-01T06:23:10.033Z,1.10
2022-09-01T06:24:09.819Z,1.10
2022-09-01T06:25:09.893Z,1.00
2022-09-01T06:26:09.781Z,1.20
2022-09-01T06:27:09.847Z,1.00
2022-09-01T06:28:09.949Z,1.10
2022-09-01T06:29:09.904Z,1.00
2022-09-01T06:30:09.736Z,0.90
2022-09-01T06:31:10.873Z,1.20
2022-09-01T06:32:09.734Z,1.00
2022-09-01T06:33:09.931Z,1.10
2022-09-01T06:34:09.723Z,1.00
2022-09-01T06:35:09.692Z,1.10
2022-09-01T06:36:09.637Z,0.90
2022-09-01T06:38:19.130Z,1.20
2022-09-01T06:39:18.947Z,1.20
2022-09-01T06:40:19.103Z,1.10
2022-09-01T06:41:18.917Z,1.00
2022-09-01T06:42:19.058Z,1.10
2022-09-01T06:43:19.523Z,0.90
2022-09-01T06:44:19.052Z,1.00
2022-09-01T06:45:18.861Z,0.90
2022-09-01T06:46:18.934Z,1.30
2022-09-01T06:47:18.807Z,1.20
2022-09-01T06:48:18.900Z,1.20
2022-09-01T06:49:18.800Z,1.00
2022-09-01T06:51:21.295Z,1.10
2022-09-01T06:52:18.741Z,1.10
2022-09-01T06:53:35.653Z,1.30
2022-09-01T06:54:21.330Z,1.20
2022-09-01T06:55:18.708Z,1.20
2022-09-01T06:56:19.820Z,1.00
2022-09-01T06:58:21.298Z,1.10
2022-09-01T06:59:20.768Z,1.00
2022-09-01T07:00:19.142Z,1.30
2022-09-01T07:01:18.718Z,1.00
2022-09-01T07:02:18.728Z,1.00
2022-09-01T07:03:18.890Z,1.10
2022-09-01T07:04:18.591Z,1.20
2022-09-01T07:08:19.904Z,1.20
2022-09-01T07:10:22.645Z,1.10
2022-09-01T07:11:22.016Z,1.00
2022-09-01T07:12:26.776Z,1.00
2022-09-01T07:13:19.491Z,1.10
2022-09-01T07:14:18.664Z,1.20
2022-09-01T07:16:38.555Z,1.10
2022-09-01T07:17:22.664Z,1.10
2022-09-01T07:18:18.449Z,1.30
2022-09-01T07:19:18.572Z,1.10
2022-09-01T07:20:25.789Z,1.00
2022-09-01T07:23:19.334Z,1.00
2022-09-01T07:24:18.326Z,1.10
2022-09-01T07:25:18.453Z,1.20
2022-09-01T07:26:24.676Z,1.00
2022-09-01T07:27:19.293Z,1.10
2022-09-01T07:28:19.417Z,1.00
2022-09-01T07:29:19.389Z,1.00
2022-09-01T07:30:18.373Z,1.20
2022-09-01T07:35:19.203Z,1.10
2022-09-01T07:36:25.966Z,1.20
2022-09-01T07:43:19.276Z,1.10
2022-09-01T07:44:18.124Z,0.80
2022-09-01T07:45:25.921Z,1.10
2022-09-01T07:47:20.288Z,1.10
2022-09-01T07:48:36.038Z,1.10
2022-09-01T07:49:53.725Z,1.30
2022-09-01T07:50:40.238Z,1.20
2022-09-01T07:51:36.027Z,1.00
2022-09-01T07:52:22.541Z,1.20
2022-09-01T07:53:18.075Z,0.90
2022-09-01T07:54:18.080Z,0.90
2022-09-01T07:55:17.937Z,1.00
2022-09-01T07:56:40.536Z,1.10
2022-09-01T07:57:17.899Z,0.90
2022-09-01T07:58:18.045Z,1.00
2022-09-01T07:59:17.875Z,1.00
2022-09-01T08:00:17.974Z,0.90
2022-09-01T08:01:17.899Z,0.80
2022-09-01T08:02:17.990Z,1.10
2022-09-01T08:03:17.939Z,1.30
2022-09-01T08:04:18.906Z,1.40
2022-09-01T08:05:17.847Z,1.20
2022-09-01T08:06:17.877Z,1.10
2022-09-01T08:07:17.779Z,1.00
2022-09-01T08:08:19.231Z,0.90
2022-09-01T08:09:25.336Z,1.00
2022-09-01T08:10:20.186Z,0.90
2022-09-01T08:11:21.895Z,1.00
2022-09-01T08:12:18.766Z,0.80
2022-09-01T08:13:22.205Z,0.90
2022-09-01T08:14:18.169Z,1.20
2022-09-01T08:16:18.938Z,0.90
2022-09-01T08:17:34.382Z,0.90
2022-09-01T08:18:18.783Z,0.80
2022-09-01T08:19:18.677Z,0.90
2022-09-01T08:20:17.626Z,1.20
2022-09-01T08:21:17.694Z,0.90
2022-09-01T08:22:17.538Z,1.10
2022-09-01T08:23:17.791Z,0.80
2022-09-01T08:24:17.632Z,0.80
2022-09-01T08:25:20.712Z,1.00
2022-09-01T08:26:18.573Z,1.00
2022-09-01T08:27:17.609Z,1.00
2022-09-01T08:28:26.481Z,1.00
2022-09-01T08:29:18.480Z,0.90
2022-09-01T08:30:39.751Z,0.70
2022-09-01T08:31:17.512Z,0.80
2022-09-01T08:32:17.594Z,0.80
2022-09-01T08:33:17.440Z,0.80
2022-09-01T08:34:17.461Z,0.80
2022-09-01T08:35:17.431Z,0.80
2022-09-01T08:36:23.086Z,0.70
2022-09-01T08:37:18.400Z,0.80
2022-09-01T08:38:17.611Z,1.00
2022-09-01T08:39:17.321Z,1.00
2022-09-01T08:40:17.612Z,0.90
2022-09-01T08:41:17.321Z,0.90
2022-09-01T08:42:17.421Z,1.00
2022-09-01T08:43:17.403Z,0.80
2022-09-01T08:44:17.343Z,0.90
2022-09-01T08:45:17.266Z,1.00
2022-09-01T08:46:17.429Z,1.20
2022-09-01T08:47:17.615Z,0.90
2022-09-01T08:49:25.436Z,0.80
2022-09-01T08:50:18.259Z,0.80
2022-09-01T08:51:20.717Z,0.80
2022-09-01T08:52:17.151Z,0.80
2022-09-01T08:53:17.216Z,1.10
2022-09-01T08:54:18.070Z,1.00
2022-09-01T08:55:18.176Z,0.80
2022-09-01T08:56:17.361Z,0.90
2022-09-01T08:57:17.092Z,0.80
2022-09-01T08:58:17.230Z,0.90
2022-09-01T08:59:17.104Z,1.00
2022-09-01T09:00:18.157Z,1.00
2022-09-01T09:01:17.756Z,1.00
2022-09-01T09:02:38.183Z,1.00
2022-09-01T09:03:17.137Z,1.00
2022-09-01T09:04:17.154Z,0.90
2022-09-01T09:05:16.997Z,1.10
2022-09-01T09:06:17.133Z,0.90
2022-09-01T09:07:17.843Z,1.00
2022-09-01T09:08:17.079Z,1.00
2022-09-01T09:09:16.958Z,0.90
2022-09-01T09:10:16.975Z,0.80
2022-09-01T09:11:16.902Z,1.00
2022-09-01T09:12:16.965Z,1.00
2022-09-01T09:13:16.929Z,0.90
2022-09-01T09:14:19.146Z,0.90
2022-09-01T09:15:16.963Z,0.90
2022-09-01T09:16:18.143Z,1.00
2022-09-01T09:17:17.216Z,1.00
2022-09-01T09:18:20.251Z,1.00
2022-09-01T09:19:17.864Z,1.00
2022-09-01T09:20:38.384Z,1.00
2022-09-01T09:21:16.793Z,1.00
2022-09-01T09:22:16.995Z,1.10
2022-09-01T09:23:17.453Z,1.00
2022-09-01T09:24:21.580Z,0.80
2022-09-01T09:25:19.420Z,1.80
2022-09-01T09:26:21.859Z,1.00
2022-09-01T09:27:17.777Z,0.80
2022-09-01T09:28:17.746Z,0.80
2022-09-01T09:29:16.698Z,0.80
2022-09-01T09:30:16.772Z,1.00
2022-09-01T09:31:18.579Z,1.20
2022-09-01T09:32:31.588Z,0.80
2022-09-01T09:33:47.536Z,0.90
2022-09-01T09:34:17.647Z,1.00
2022-09-01T09:35:16.590Z,0.80
2022-09-01T09:36:16.654Z,0.80
2022-09-01T09:37:16.720Z,0.90
2022-09-01T09:38:17.676Z,1.10
2022-09-01T09:39:16.676Z,1.10
2022-09-01T09:40:17.359Z,0.90
2022-09-01T09:41:18.777Z,0.80
2022-09-01T09:42:16.569Z,1.00
2022-09-01T09:43:37.766Z,1.00
2022-09-01T09:44:16.547Z,1.00
2022-09-01T09:45:16.568Z,0.90
2022-09-01T09:46:25.314Z,1.00
2022-09-01T09:47:42.427Z,0.80
2022-09-01T09:48:17.420Z,0.90
2022-09-01T09:49:16.420Z,1.20
2022-09-01T09:50:16.510Z,1.00
2022-09-01T09:51:16.379Z,1.00
2022-09-01T09:52:16.809Z,0.60
2022-09-01T09:53:16.446Z,0.80
2022-09-01T09:54:16.526Z,1.00
2022-09-01T09:55:16.360Z,0.90
2022-09-01T09:56:16.413Z,1.00
2022-09-01T09:57:16.389Z,0.90
2022-09-01T09:58:17.510Z,1.10
2022-09-01T09:59:16.282Z,1.10
2022-09-01T10:00:20.039Z,0.90
2022-09-01T10:01:17.864Z,0.80
2022-09-01T10:02:17.401Z,0.90
2022-09-01T10:03:16.312Z,0.90
2022-09-01T10:04:16.414Z,0.90
2022-09-01T10:05:16.202Z,0.90
2022-09-01T10:06:16.350Z,0.90
2022-09-01T10:07:16.176Z,0.70
2022-09-01T10:08:16.322Z,1.00
2022-09-01T10:09:16.144Z,0.60
2022-09-01T10:10:17.291Z,0.90
2022-09-01T10:11:16.151Z,0.80
2022-09-01T10:12:16.323Z,0.90
2022-09-01T10:13:16.192Z,1.00
2022-09-01T10:14:22.935Z,0.70
2022-09-01T10:15:17.122Z,0.90
2022-09-01T10:16:16.280Z,0.80
2022-09-01T10:17:17.158Z,1.00
2022-09-01T10:18:21.033Z,0.90
2022-09-01T10:19:16.284Z,0.80
2022-09-01T10:20:16.164Z,0.90
2022-09-01T10:21:16.005Z,0.90
2022-09-01T10:22:16.135Z,0.90
2022-09-01T10:23:16.015Z,0.90
2022-09-01T10:24:17.747Z,0.80
2022-09-01T10:25:15.934Z,1.00
2022-09-01T10:26:16.055Z,0.90
2022-09-01T10:27:15.926Z,0.70
2022-09-01T10:28:20.854Z,0.90
2022-09-01T10:29:16.013Z,0.70
2022-09-01T10:30:20.073Z,0.80
2022-09-01T10:31:15.951Z,0.80
2022-09-01T10:32:31.864Z,0.70
2022-09-01T10:33:20.969Z,0.70
2022-09-01T10:34:19.320Z,0.80
2022-09-01T10:35:18.253Z,1.00
2022-09-01T10:36:15.995Z,0.80
2022-09-01T10:37:16.291Z,1.00
2022-09-01T10:38:16.006Z,0.90
2022-09-01T10:39:15.766Z,0.90
2022-09-01T10:41:25.388Z,0.70
2022-09-01T10:42:25.141Z,0.60
2022-09-01T10:43:25.112Z,1.00
2022-09-01T10:44:25.050Z,1.00
2022-09-01T10:45:26.615Z,0.80
2022-09-01T10:46:26.162Z,1.00
2022-09-01T10:47:25.226Z,0.90
2022-09-01T10:48:33.657Z,0.70
2022-09-01T10:49:27.969Z,0.80
2022-09-01T10:50:25.122Z,1.20
2022-09-01T10:51:28.898Z,0.90
2022-09-01T10:52:28.692Z,1.00
2022-09-01T10:53:26.932Z,0.80
2022-09-01T10:54:26.667Z,0.90
2022-09-01T10:55:25.454Z,0.90
2022-09-01T10:56:35.646Z,0.80
2022-09-01T10:57:27.782Z,0.80
2022-09-01T10:59:41.810Z,0.90
2022-09-01T11:00:41.475Z,0.90
2022-09-01T11:01:47.315Z,1.10
2022-09-01T11:02:28.848Z,0.90
2022-09-01T11:03:34.978Z,1.00
2022-09-01T11:04:25.823Z,1.00
2022-09-01T11:05:24.894Z,0.90
2022-09-01T11:06:32.912Z,1.10
2022-09-01T11:07:32.735Z,0.90
2022-09-01T11:08:25.797Z,1.10
2022-09-01T11:09:24.878Z,0.90
2022-09-01T11:10:32.097Z,1.00
2022-09-01T11:11:25.686Z,0.80
2022-09-01T11:12:29.191Z,1.00
2022-09-01T11:13:24.741Z,1.00
2022-09-01T11:14:24.715Z,0.90
2022-09-01T11:15:26.770Z,0.80
2022-09-01T11:17:25.721Z,0.90
2022-09-01T11:18:24.677Z,1.10
2022-09-01T11:19:24.560Z,0.90
2022-09-01T11:21:34.092Z,0.70
2022-09-01T11:22:33.901Z,0.90
2022-09-01T11:23:34.026Z,0.90
2022-09-01T11:24:33.863Z,0.90
2022-09-01T11:25:42.259Z,0.80
2022-09-01T11:26:34.846Z,0.80
2022-09-01T11:27:34.064Z,0.90
2022-09-01T11:28:33.892Z,0.90
2022-09-01T11:29:33.836Z,0.90
2022-09-01T11:30:33.774Z,0.70
2022-09-01T11:31:33.887Z,0.80
2022-09-01T11:32:33.745Z,1.00
2022-09-01T11:33:33.834Z,0.80
2022-09-01T11:34:33.743Z,0.80
2022-09-01T11:35:34.864Z,0.70
2022-09-01T11:36:33.714Z,1.20
2022-09-01T11:37:33.966Z,0.70
2022-09-01T11:38:33.698Z,1.00
2022-09-01T11:39:33.874Z,0.90
2022-09-01T11:40:33.693Z,0.90
2022-09-01T11:41:33.747Z,0.70
2022-09-01T11:42:33.610Z,0.90
2022-09-01T11:43:54.682Z,0.80
2022-09-01T11:44:33.637Z,0.90
2022-09-01T11:45:33.876Z,0.80
2022-09-01T11:46:33.558Z,1.00
2022-09-01T11:47:33.804Z,1.10
2022-09-01T11:48:33.629Z,0.80
2022-09-01T11:49:34.598Z,0.70
2022-09-01T11:50:33.499Z,0.80
2022-09-01T11:51:33.591Z,0.70
2022-09-01T11:52:33.477Z,0.70
2022-09-01T11:53:33.569Z,0.90
2022-09-01T11:54:33.459Z,0.70
2022-09-01T11:55:33.615Z,0.80
2022-09-01T11:56:33.460Z,1.00
2022-09-01T11:57:33.635Z,0.80
2022-09-01T11:58:33.471Z,0.70
2022-09-01T11:59:34.467Z,0.70
2022-09-01T12:00:33.386Z,0.70
2022-09-01T12:01:34.478Z,0.60
2022-09-01T12:02:33.568Z,1.00
2022-09-01T12:03:33.556Z,0.70
2022-09-01T12:04:33.400Z,0.90
2022-09-01T12:05:33.301Z,1.00
2022-09-01T12:06:33.431Z,0.70
2022-09-01T12:07:33.271Z,0.80
2022-09-01T12:08:33.411Z,0.70
2022-09-01T12:09:33.303Z,0.80
2022-09-01T12:10:33.443Z,0.60
2022-09-01T12:11:33.301Z,0.70
2022-09-01T12:12:33.238Z,0.50
2022-09-01T12:13:33.201Z,0.80
2022-09-01T12:14:55.119Z,0.70
2022-09-01T12:15:35.281Z,0.70
2022-09-01T12:16:33.246Z,0.70
2022-09-01T12:17:33.171Z,0.70
2022-09-01T12:18:33.142Z,0.70
2022-09-01T12:19:33.260Z,1.00
2022-09-01T12:20:33.109Z,0.90
2022-09-01T12:21:33.252Z,0.70
2022-09-01T12:22:33.083Z,0.80
2022-09-01T12:23:33.243Z,0.80
2022-09-01T12:24:33.072Z,0.70
2022-09-01T12:25:35.217Z,0.70
2022-09-01T12:26:33.093Z,0.70
2022-09-01T12:27:33.154Z,0.80
2022-09-01T12:28:32.996Z,0.50
2022-09-01T12:29:34.073Z,0.70
2022-09-01T12:30:32.994Z,0.60
2022-09-01T12:31:35.064Z,0.80
2022-09-01T12:32:32.953Z,0.60
2022-09-01T12:33:33.159Z,0.60
2022-09-01T12:34:32.966Z,0.50
2022-09-01T12:35:33.129Z,0.80
2022-09-01T12:36:32.979Z,0.70
2022-09-01T12:37:35.047Z,0.80
2022-09-01T12:38:32.867Z,0.70
2022-09-01T12:39:33.294Z,0.70
2022-09-01T12:40:32.878Z,0.80
2022-09-01T12:41:33.036Z,0.60
2022-09-01T12:42:41.425Z,0.60
2022-09-01T12:43:33.888Z,0.60
2022-09-01T12:44:32.868Z,0.70
2022-09-01T12:45:32.806Z,0.80
2022-09-01T12:46:33.409Z,0.60
2022-09-01T12:47:32.777Z,0.70
2022-09-01T12:48:33.898Z,0.90
2022-09-01T12:49:32.718Z,0.80
2022-09-01T12:50:32.810Z,0.60
2022-09-01T12:51:32.702Z,0.70
2022-09-01T12:52:32.840Z,0.70
2022-09-01T12:53:36.150Z,0.60
2022-09-01T12:54:32.678Z,0.80
2022-09-01T12:55:48.292Z,0.80
2022-09-01T12:56:33.690Z,0.80
2022-09-01T12:57:32.729Z,0.70
2022-09-01T12:58:32.611Z,0.80
2022-09-01T12:59:37.197Z,0.70
2022-09-01T13:00:32.629Z,0.80
2022-09-01T13:01:32.889Z,0.90
2022-09-01T13:02:32.774Z,0.60
2022-09-01T13:03:34.500Z,0.70
2022-09-01T13:04:32.686Z,0.80
2022-09-01T13:05:37.311Z,0.80
2022-09-01T13:06:33.656Z,0.80
2022-09-01T13:07:32.631Z,0.90
2022-09-01T13:08:32.471Z,0.70
2022-09-01T13:09:32.593Z,0.70
2022-09-01T13:10:32.705Z,0.80
2022-09-01T13:12:34.650Z,0.70
2022-09-01T13:13:32.411Z,0.70
2022-09-01T13:14:32.512Z,0.70
2022-09-01T13:15:32.376Z,0.90
2022-09-01T13:16:34.636Z,0.70
2022-09-01T13:17:32.472Z,0.70
2022-09-01T13:19:10.552Z,0.60
2022-09-01T13:19:33.492Z,0.80
2022-09-01T13:20:32.344Z,0.80
2022-09-01T13:21:53.535Z,0.80
2022-09-01T13:22:32.312Z,0.60
2022-09-01T13:23:32.395Z,0.70
2022-09-01T13:24:32.258Z,0.70
2022-09-01T13:25:32.373Z,0.70
2022-09-01T13:26:32.224Z,0.90
2022-09-01T13:28:42.077Z,0.80
2022-09-01T13:29:41.999Z,0.80
2022-09-01T13:30:42.140Z,0.70
2022-09-01T13:32:17.574Z,0.60
2022-09-01T13:33:18.731Z,0.90
2022-09-01T13:34:43.775Z,0.70
2022-09-01T13:35:42.705Z,0.70
2022-09-01T13:36:43.485Z,0.70
2022-09-01T13:37:41.927Z,0.60
2022-09-01T13:38:41.971Z,0.60
2022-09-01T13:39:41.946Z,0.70
2022-09-01T13:40:42.261Z,0.50
2022-09-01T13:41:42.374Z,0.70
2022-09-01T13:42:41.992Z,0.80
2022-09-01T13:43:41.809Z,0.70
2022-09-01T13:44:46.291Z,0.70
2022-09-01T13:45:42.020Z,0.60
2022-09-01T13:50:04.597Z,0.70
2022-09-01T13:51:42.712Z,0.50
2022-09-01T13:52:41.798Z,0.60
2022-09-01T13:53:41.794Z,0.60